createdAt,value
2022-11-03T00:01:47.809Z,100453.94
2022-11-03T00:04:19.141Z,100452.44
2022-11-03T00:06:49.785Z,100454.09
2022-11-03T00:09:23.334Z,100458.31
2022-11-03T00:11:52.048Z,100461.72
2022-11-03T00:14:19.665Z,100459.09
2022-11-03T00:16:47.455Z,100454.56
2022-11-03T00:19:17.689Z,100454.56
2022-11-03T00:21:45.424Z,100452.66
2022-11-03T00:24:13.183Z,100458.94
2022-11-03T00:26:40.587Z,100449.56
2022-11-03T00:29:13.153Z,100448.75
2022-11-03T00:31:43.130Z,100451.94
2022-11-03T00:34:11.146Z,100444.84
2022-11-03T00:36:41.049Z,100444.63
2022-11-03T00:39:08.446Z,100446.34
2022-11-03T00:41:36.178Z,100442.53
2022-11-03T00:44:03.639Z,100447.03
2022-11-03T00:46:30.705Z,100453.53
2022-11-03T00:48:58.033Z,100453.19
2022-11-03T00:51:34.412Z,100453.09
2022-11-03T00:54:03.811Z,100444.56
2022-11-03T00:56:35.953Z,100450.25
2022-11-03T00:59:06.903Z,100440.09
2022-11-03T01:01:46.535Z,100442.16
2022-11-03T01:04:36.579Z,100440.38
2022-11-03T01:07:05.245Z,100433.88
2022-11-03T01:09:38.539Z,100427.81
2022-11-03T01:12:05.897Z,100440.66
2022-11-03T01:14:46.821Z,100444.34
2022-11-03T01:17:22.565Z,100444.34
2022-11-03T01:19:52.535Z,100441.09
2022-11-03T01:22:20.330Z,100431.59
2022-11-03T01:24:47.809Z,100434.84
2022-11-03T01:27:17.597Z,100429.63
2022-11-03T01:29:44.875Z,100436.34
2022-11-03T01:32:12.692Z,100442.16
2022-11-03T01:34:42.622Z,100443.13
2022-11-03T01:37:09.703Z,100424.03
2022-11-03T01:39:37.131Z,100419.81
2022-11-03T01:42:04.440Z,100421.81
2022-11-03T01:44:35.665Z,100410.75
2022-11-03T01:47:31.792Z,100407.97
2022-11-03T01:50:12.444Z,100396.88
2022-11-03T01:52:51.306Z,100390.59
2022-11-03T01:55:32.719Z,100388.53
2022-11-03T01:58:07.399Z,100396.25
2022-11-03T02:00:36.141Z,100390.75
2022-11-03T02:03:04.789Z,100384.94
2022-11-03T02:05:32.554Z,100384.75
2022-11-03T02:08:02.435Z,100390.75
2022-11-03T02:10:29.642Z,100381.72
2022-11-03T02:12:59.475Z,100387.16
2022-11-03T02:15:27.636Z,100393.16
2022-11-03T02:17:56.932Z,100376.84
2022-11-03T02:20:27.101Z,100373.81
2022-11-03T02:23:12.350Z,100370.00
2022-11-03T02:25:52.947Z,100364.41
2022-11-03T02:28:23.453Z,100364.91
2022-11-03T02:31:08.977Z,100366.63
2022-11-03T02:33:42.174Z,100364.34
2022-11-03T02:36:12.590Z,100361.81
2022-11-03T02:38:47.458Z,100358.50
2022-11-03T02:41:16.311Z,100360.28
2022-11-03T02:43:45.858Z,100360.19
2022-11-03T02:46:17.211Z,100359.47
2022-11-03T02:48:44.282Z,100350.44
2022-11-03T02:51:11.512Z,100346.91
2022-11-03T02:54:10.268Z,100354.34
2022-11-03T02:56:52.914Z,100347.72
2022-11-03T02:59:27.863Z,100349.56
2022-11-03T03:02:05.836Z,100341.91
2022-11-03T03:04:55.510Z,100350.25
2022-11-03T03:07:26.606Z,100352.19
2022-11-03T03:10:02.487Z,100352.38
2022-11-03T03:12:32.147Z,100343.84
2022-11-03T03:15:01.659Z,100350.00
2022-11-03T03:17:49.362Z,100346.69
2022-11-03T03:20:22.626Z,100343.38
2022-11-03T03:23:00.781Z,100346.13
2022-11-03T03:25:36.204Z,100342.16
2022-11-03T03:28:10.521Z,100340.22
2022-11-03T03:30:39.154Z,100344.03
2022-11-03T03:33:08.776Z,100338.63
2022-11-03T03:35:40.381Z,100329.59
2022-11-03T03:38:13.546Z,100335.69
2022-11-03T03:40:44.176Z,100333.19
2022-11-03T03:43:17.402Z,100339.94
2022-11-03T03:45:46.169Z,100332.63
2022-11-03T03:48:13.634Z,100331.09
2022-11-03T03:50:42.822Z,100328.44
2022-11-03T03:53:13.251Z,100332.69
2022-11-03T03:55:42.745Z,100330.44
2022-11-03T03:58:13.108Z,100323.22
2022-11-03T04:00:40.434Z,100327.47
2022-11-03T04:03:14.891Z,100309.75
2022-11-03T04:05:41.831Z,100311.75
2022-11-03T04:08:09.653Z,100303.41
2022-11-03T04:10:36.801Z,100296.00
2022-11-03T04:13:23.586Z,100305.44
2022-11-03T04:16:09.558Z,100290.97
2022-11-03T04:18:55.326Z,100291.13
2022-11-03T04:21:57.722Z,100290.25
2022-11-03T04:24:27.544Z,100284.19
2022-11-03T04:27:00.936Z,100286.19
2022-11-03T04:29:29.464Z,100290.91
2022-11-03T04:31:57.264Z,100282.38
2022-11-03T04:34:25.166Z,100274.81
2022-11-03T04:36:52.094Z,100267.22
2022-11-03T04:39:20.407Z,100261.16
2022-11-03T04:41:48.351Z,100259.56
2022-11-03T04:44:16.850Z,100254.72
2022-11-03T04:46:45.943Z,100257.94
2022-11-03T04:49:21.976Z,100258.88
2022-11-03T04:51:50.300Z,100257.94
2022-11-03T04:54:22.524Z,100254.06
2022-11-03T04:56:49.891Z,100245.97
2022-11-03T04:59:17.373Z,100236.59
2022-11-03T05:01:47.155Z,100230.63
2022-11-03T05:04:16.599Z,100239.91
2022-11-03T05:06:52.684Z,100231.75
2022-11-03T05:09:27.726Z,100232.03
2022-11-03T05:11:54.839Z,100233.38
2022-11-03T05:14:27.870Z,100227.91
2022-11-03T05:16:56.314Z,100233.06
2022-11-03T05:19:28.991Z,100235.13
2022-11-03T05:21:59.154Z,100241.47
2022-11-03T05:24:27.024Z,100233.31
2022-11-03T05:26:56.864Z,100226.34
2022-11-03T05:29:38.881Z,100234.88
2022-11-03T05:32:16.888Z,100235.25
2022-11-03T05:34:47.340Z,100236.56
2022-11-03T05:37:27.976Z,100232.63
2022-11-03T05:39:58.662Z,100227.75
2022-11-03T05:42:34.010Z,100232.09
2022-11-03T05:45:04.767Z,100228.91
2022-11-03T05:47:37.518Z,100230.97
2022-11-03T05:50:22.300Z,100239.03
2022-11-03T05:52:52.818Z,100238.81
2022-11-03T05:55:30.623Z,100236.91
2022-11-03T05:58:00.175Z,100239.44
2022-11-03T06:00:31.260Z,100239.03
2022-11-03T06:02:59.489Z,100231.50
2022-11-03T06:05:29.556Z,100236.16
2022-11-03T06:08:00.631Z,100238.47
2022-11-03T06:10:31.373Z,100237.03
2022-11-03T06:13:09.507Z,100234.66
2022-11-03T06:15:37.700Z,100234.38
2022-11-03T06:18:16.341Z,100237.50
2022-11-03T06:20:54.866Z,100239.63
2022-11-03T06:23:23.482Z,100242.41
2022-11-03T06:25:55.712Z,100235.47
2022-11-03T06:28:30.525Z,100239.78
2022-11-03T06:30:57.988Z,100236.84
2022-11-03T06:33:33.381Z,100244.63
2022-11-03T06:36:21.176Z,100251.47
2022-11-03T06:38:55.296Z,100247.97
2022-11-03T06:41:29.885Z,100246.00
2022-11-03T06:44:02.534Z,100250.53
2022-11-03T06:46:30.903Z,100256.56
2022-11-03T06:49:00.650Z,100253.53
2022-11-03T06:51:29.637Z,100248.84
2022-11-03T06:54:01.686Z,100248.34
2022-11-03T06:56:32.029Z,100244.81
2022-11-03T06:58:59.046Z,100248.63
2022-11-03T07:01:31.256Z,100247.66
2022-11-03T07:04:30.079Z,100227.91
2022-11-03T07:07:03.115Z,100226.94
2022-11-03T07:09:30.251Z,100227.97
2022-11-03T07:11:59.939Z,100231.94
2022-11-03T07:14:33.219Z,100229.19
2022-11-03T07:17:05.748Z,100231.44
2022-11-03T07:19:42.577Z,100235.25
2022-11-03T07:22:18.633Z,100230.97
2022-11-03T07:24:51.772Z,100232.81
2022-11-03T07:27:34.888Z,100227.59
2022-11-03T07:30:22.854Z,100223.84
2022-11-03T07:32:53.351Z,100232.16
2022-11-03T07:35:53.411Z,100228.69
2022-11-03T07:38:22.516Z,100221.69
2022-11-03T07:40:51.678Z,100220.16
2022-11-03T07:43:25.252Z,100221.19
2022-11-03T07:45:53.776Z,100214.88
2022-11-03T07:48:33.802Z,100208.13
2022-11-03T07:51:22.327Z,100191.25
2022-11-03T07:53:56.656Z,100195.50
2022-11-03T07:56:29.156Z,100202.31
2022-11-03T07:59:04.780Z,100189.72
2022-11-03T08:01:36.905Z,100179.13
2022-11-03T08:04:07.078Z,100192.94
2022-11-03T08:06:34.464Z,100180.84
2022-11-03T08:09:02.099Z,100173.50
2022-11-03T08:11:29.833Z,100171.16
2022-11-03T08:13:57.850Z,100165.25
2022-11-03T08:16:24.824Z,100163.63
2022-11-03T08:18:52.267Z,100156.78
2022-11-03T08:21:19.345Z,100151.75
2022-11-03T08:23:47.783Z,100151.97
2022-11-03T08:26:17.475Z,100147.94
2022-11-03T08:28:44.877Z,100147.13
2022-11-03T08:31:13.160Z,100134.22
2022-11-03T08:33:43.693Z,100137.28
2022-11-03T08:36:11.180Z,100123.13
2022-11-03T08:38:39.537Z,100127.94
2022-11-03T08:41:06.582Z,100135.50
2022-11-03T08:43:33.897Z,100134.47
2022-11-03T08:46:08.140Z,100116.47
2022-11-03T08:48:40.348Z,100113.78
2022-11-03T08:51:10.363Z,100114.31
2022-11-03T08:53:40.513Z,100104.91
2022-11-03T08:56:10.528Z,100097.72
2022-11-03T08:58:40.222Z,100110.66
2022-11-03T09:01:09.683Z,100103.50
2022-11-03T09:03:37.056Z,100097.81
2022-11-03T09:06:04.282Z,100090.94
2022-11-03T09:11:18.727Z,100075.47
2022-11-03T09:13:46.055Z,100068.47
2022-11-03T09:16:13.130Z,100079.06
2022-11-03T09:18:40.127Z,100067.03
2022-11-03T09:21:08.971Z,100060.44
2022-11-03T09:23:37.269Z,100049.28
2022-11-03T09:26:06.736Z,100049.16
2022-11-03T09:28:33.737Z,100043.75
2022-11-03T09:31:01.054Z,100036.63
2022-11-03T09:33:28.039Z,100036.75
2022-11-03T09:35:55.539Z,100037.25
2022-11-03T09:38:22.659Z,100021.53
2022-11-03T09:40:49.968Z,100027.28
2022-11-03T09:43:17.175Z,100020.69
2022-11-03T09:45:44.490Z,100017.94
2022-11-03T09:48:12.891Z,100024.75
2022-11-03T09:50:40.540Z,100020.28
2022-11-03T09:53:12.055Z,100007.03
2022-11-03T09:55:39.993Z,100002.19
2022-11-03T09:58:17.466Z,99998.66
2022-11-03T10:00:45.605Z,99991.88
2022-11-03T10:03:14.899Z,99970.84
2022-11-03T10:05:45.070Z,99978.97
2022-11-03T10:08:31.475Z,99971.81
2022-11-03T10:11:00.492Z,99964.25
2022-11-03T10:13:39.064Z,99957.94
2022-11-03T10:16:09.237Z,99952.78
2022-11-03T10:18:37.613Z,99953.22
2022-11-03T10:21:07.519Z,99961.19
2022-11-03T10:23:34.870Z,99945.66
2022-11-03T10:26:19.754Z,99944.28
2022-11-03T10:31:54.254Z,99932.34
2022-11-03T10:34:42.034Z,99933.28
2022-11-03T10:37:22.807Z,99935.38
2022-11-03T10:39:53.010Z,99923.63
2022-11-03T10:42:35.196Z,99918.25
2022-11-03T10:45:32.568Z,99912.50
2022-11-03T10:48:02.022Z,99905.44
2022-11-03T10:50:29.466Z,99910.09
2022-11-03T10:52:57.618Z,99893.31
2022-11-03T10:55:25.747Z,99882.50
2022-11-03T10:57:55.908Z,99886.78
2022-11-03T11:00:24.370Z,99868.16
2022-11-03T11:02:58.717Z,99869.44
2022-11-03T11:05:26.427Z,99852.50
2022-11-03T11:07:54.512Z,99851.72
2022-11-03T11:10:27.079Z,99848.19
2022-11-03T11:13:13.775Z,99856.97
2022-11-03T11:16:28.993Z,99838.50
2022-11-03T11:18:55.920Z,99837.19
2022-11-03T11:21:25.124Z,99831.41
2022-11-03T11:23:54.555Z,99815.00
2022-11-03T11:26:32.155Z,99821.88
2022-11-03T11:29:08.515Z,99832.16
2022-11-03T11:31:39.497Z,99799.31
2022-11-03T11:34:09.313Z,99811.84
2022-11-03T11:36:41.925Z,99806.41
2022-11-03T11:39:15.329Z,99804.03
2022-11-03T11:42:05.657Z,99799.53
2022-11-03T11:44:54.899Z,99798.38
2022-11-03T11:47:27.231Z,99790.53
2022-11-03T11:50:12.208Z,99789.47
2022-11-03T11:52:46.305Z,99769.50
2022-11-03T11:55:33.842Z,99765.56
2022-11-03T11:58:04.759Z,99746.38
2022-11-03T12:00:34.940Z,99754.56
2022-11-03T12:03:05.956Z,99746.72
2022-11-03T12:05:35.980Z,99738.88
2022-11-03T12:08:17.492Z,99740.88
2022-11-03T12:10:53.435Z,99722.03
2022-11-03T12:13:44.570Z,99722.19
2022-11-03T12:16:30.608Z,99714.91
2022-11-03T12:19:18.387Z,99697.75
2022-11-03T12:21:52.121Z,99705.56
2022-11-03T12:24:32.253Z,99694.94
2022-11-03T12:27:00.388Z,99691.84
2022-11-03T12:29:30.247Z,99691.78
2022-11-03T12:31:57.299Z,99691.75
2022-11-03T12:34:24.228Z,99690.97
2022-11-03T12:36:56.342Z,99683.53
2022-11-03T12:39:23.638Z,99684.09
2022-11-03T12:41:50.830Z,99676.59
2022-11-03T12:44:18.169Z,99670.25
2022-11-03T12:46:45.280Z,99669.38
2022-11-03T12:49:12.265Z,99656.47
2022-11-03T12:51:39.636Z,99657.56
2022-11-03T12:54:06.752Z,99657.75
2022-11-03T12:56:36.358Z,99659.22
2022-11-03T12:59:05.585Z,99650.81
2022-11-03T13:01:35.887Z,99643.56
2022-11-03T13:04:05.190Z,99635.28
2022-11-03T13:06:33.261Z,99619.22
2022-11-03T13:09:00.951Z,99627.81
2022-11-03T13:11:49.309Z,99617.56
2022-11-03T13:14:18.736Z,99618.88
2022-11-03T13:16:46.185Z,99613.84
2022-11-03T13:19:13.394Z,99622.88
2022-11-03T13:21:45.406Z,99623.97
2022-11-03T13:24:12.371Z,99616.34
2022-11-03T13:26:39.652Z,99614.50
2022-11-03T13:29:06.648Z,99609.09
2022-11-03T13:31:35.852Z,99596.22
2022-11-03T13:34:02.883Z,99595.94
2022-11-03T13:36:32.679Z,99593.56
2022-11-03T13:38:59.700Z,99591.88
2022-11-03T13:41:27.009Z,99585.91
2022-11-03T13:43:54.003Z,99591.69
2022-11-03T13:46:21.374Z,99586.13
2022-11-03T13:51:37.899Z,99581.09
2022-11-03T13:59:39.254Z,99578.38
2022-11-03T14:04:53.815Z,99590.16
2022-11-03T14:07:21.092Z,99592.41
2022-11-03T14:09:48.180Z,99575.28
2022-11-03T14:12:34.853Z,99565.59
2022-11-03T14:15:13.290Z,99565.97
2022-11-03T14:17:41.347Z,99566.41
2022-11-03T14:20:12.324Z,99569.72
2022-11-03T14:22:40.870Z,99561.38
2022-11-03T14:25:08.553Z,99563.44
2022-11-03T14:27:36.090Z,99552.47
2022-11-03T14:30:04.283Z,99561.97
2022-11-03T14:32:31.594Z,99547.09
2022-11-03T14:34:58.651Z,99545.41
2022-11-03T14:37:30.405Z,99549.72
2022-11-03T14:39:57.341Z,99542.47
2022-11-03T14:42:24.972Z,99540.44
2022-11-03T14:47:23.050Z,99543.25
2022-11-03T14:49:50.531Z,99530.56
2022-11-03T14:52:19.747Z,99521.81
2022-11-03T14:54:47.102Z,99520.72
2022-11-03T14:57:14.082Z,99519.63
2022-11-03T14:59:41.874Z,99519.25
2022-11-03T15:02:09.260Z,99506.56
2022-11-03T15:04:39.099Z,99520.38
2022-11-03T15:07:06.112Z,99511.63
2022-11-03T15:09:35.715Z,99517.75
2022-11-03T15:12:04.454Z,99506.59
2022-11-03T15:14:31.513Z,99502.50
2022-11-03T15:16:58.782Z,99512.16
2022-11-03T15:19:26.062Z,99514.41
2022-11-03T15:21:53.351Z,99520.91
2022-11-03T15:27:09.979Z,99520.00
2022-11-03T15:29:37.680Z,99515.53
2022-11-03T15:32:05.036Z,99515.91
2022-11-03T15:34:32.454Z,99523.88
2022-11-03T15:37:01.855Z,99513.66
2022-11-03T15:39:29.922Z,99509.22
2022-11-03T15:41:57.665Z,99499.91
2022-11-03T15:44:24.975Z,99495.78
2022-11-03T15:46:52.014Z,99482.78
2022-11-03T15:49:19.251Z,99485.19
2022-11-03T15:51:46.922Z,99476.47
2022-11-03T15:54:14.825Z,99464.94
2022-11-03T15:56:42.017Z,99450.22
2022-11-03T15:59:09.994Z,99445.94
2022-11-03T16:01:37.518Z,99448.38
2022-11-03T16:04:05.141Z,99439.47
2022-11-03T16:07:06.129Z,99437.41
2022-11-03T16:09:21.044Z,99425.88
2022-11-03T16:11:48.600Z,99432.22
2022-11-03T16:14:16.024Z,99429.78
2022-11-03T16:16:43.934Z,99438.09
2022-11-03T16:19:12.009Z,99433.63
2022-11-03T16:21:41.977Z,99433.06
2022-11-03T16:24:09.807Z,99432.50
2022-11-03T16:26:37.627Z,99429.88
2022-11-03T16:29:05.184Z,99425.78
2022-11-03T16:31:33.190Z,99420.56
2022-11-03T16:34:01.001Z,99419.47
2022-11-03T16:36:28.917Z,99428.34
2022-11-03T16:38:56.543Z,99413.88
2022-11-03T16:41:24.653Z,99420.78
2022-11-03T16:43:55.236Z,99409.25
2022-11-03T16:46:23.333Z,99412.19
2022-11-03T16:48:51.520Z,99412.91
2022-11-03T16:51:19.685Z,99412.38
2022-11-03T16:53:47.598Z,99406.41
2022-11-03T16:56:19.479Z,99399.72
2022-11-03T16:58:48.973Z,99393.25
2022-11-03T17:01:17.310Z,99388.06
2022-11-03T17:03:44.840Z,99388.81
2022-11-03T17:06:13.149Z,99385.69
2022-11-03T17:08:52.888Z,99380.66
2022-11-03T17:11:38.366Z,99374.34
2022-11-03T17:14:09.113Z,99371.53
2022-11-03T17:16:40.256Z,99374.84
2022-11-03T17:19:08.043Z,99375.22
2022-11-03T17:21:37.178Z,99382.63
2022-11-03T17:24:07.771Z,99388.78
2022-11-03T17:26:46.797Z,99375.22
2022-11-03T17:29:19.625Z,99370.56
2022-11-03T17:31:49.166Z,99362.38
2022-11-03T17:34:22.102Z,99351.97
2022-11-03T17:36:50.696Z,99348.66
2022-11-03T17:39:22.037Z,99341.03
2022-11-03T17:41:49.879Z,99346.97
2022-11-03T17:44:19.088Z,99343.22
2022-11-03T17:46:47.583Z,99359.97
2022-11-03T17:49:17.428Z,99347.34
2022-11-03T17:51:47.194Z,99349.56
2022-11-03T17:54:17.168Z,99349.59
2022-11-03T17:56:46.468Z,99352.38
2022-11-03T17:59:16.490Z,99342.91
2022-11-03T18:01:47.459Z,99337.16
2022-11-03T18:04:16.040Z,99344.75
2022-11-03T18:06:45.954Z,99341.91
2022-11-03T18:09:14.256Z,99331.97
2022-11-03T18:12:02.049Z,99328.75
2022-11-03T18:14:30.718Z,99333.81
2022-11-03T18:16:59.486Z,99325.19
2022-11-03T18:19:29.345Z,99323.66
2022-11-03T18:22:01.139Z,99315.47
2022-11-03T18:24:30.085Z,99320.81
2022-11-03T18:27:00.741Z,99311.44
2022-11-03T18:29:29.739Z,99299.19
2022-11-03T18:31:58.995Z,99305.66
2022-11-03T18:34:28.673Z,99301.91
2022-11-03T18:36:57.272Z,99301.19
2022-11-03T18:39:28.307Z,99300.22
2022-11-03T18:41:59.028Z,99295.78
2022-11-03T18:44:29.429Z,99293.53
2022-11-03T18:46:59.292Z,99292.38
2022-11-03T18:49:29.841Z,99291.66
2022-11-03T18:52:03.837Z,99283.50
2022-11-03T18:54:35.803Z,99295.72
2022-11-03T18:57:04.615Z,99286.81
2022-11-03T18:59:37.890Z,99280.88
2022-11-03T19:02:32.533Z,99272.34
2022-11-03T19:05:01.635Z,99276.94
2022-11-03T19:07:32.361Z,99273.75
2022-11-03T19:10:05.345Z,99270.81
2022-11-03T19:12:39.149Z,99266.09
2022-11-03T19:15:10.759Z,99267.97
2022-11-03T19:17:40.255Z,99267.41
2022-11-03T19:20:19.450Z,99257.78
2022-11-03T19:22:48.439Z,99257.53
2022-11-03T19:25:19.752Z,99247.69
2022-11-03T19:27:50.696Z,99244.66
2022-11-03T19:30:24.145Z,99234.53
2022-11-03T19:32:57.835Z,99227.06
2022-11-03T19:35:36.437Z,99225.38
2022-11-03T19:38:10.799Z,99219.94
2022-11-03T19:41:00.043Z,99209.28
2022-11-03T19:43:34.197Z,99192.47
2022-11-03T19:46:05.162Z,99192.72
2022-11-03T19:48:35.481Z,99188.81
2022-11-03T19:51:09.426Z,99188.41
2022-11-03T19:53:38.277Z,99185.41
2022-11-03T19:56:08.976Z,99174.66
2022-11-03T19:58:37.286Z,99171.69
2022-11-03T20:01:09.459Z,99176.09
2022-11-03T20:03:39.182Z,99167.88
2022-11-03T20:06:12.160Z,99158.94
2022-11-03T20:08:47.871Z,99155.56
2022-11-03T20:11:16.395Z,99154.06
2022-11-03T20:13:49.359Z,99147.78
2022-11-03T20:16:18.755Z,99150.91
2022-11-03T20:18:49.492Z,99149.53
2022-11-03T20:21:22.940Z,99148.78
2022-11-03T20:23:51.905Z,99136.88
2022-11-03T20:26:24.282Z,99133.69
2022-11-03T20:28:57.073Z,99119.00
2022-11-03T20:31:26.925Z,99125.84
2022-11-03T20:33:55.205Z,99120.50
2022-11-03T20:36:26.353Z,99119.00
2022-11-03T20:38:59.898Z,99117.19
2022-11-03T20:41:29.461Z,99119.22
2022-11-03T20:43:59.508Z,99105.66
2022-11-03T20:46:33.863Z,99096.25
2022-11-03T20:49:02.404Z,99097.00
2022-11-03T20:51:48.865Z,99083.75
2022-11-03T20:54:19.475Z,99089.91
2022-11-03T20:56:48.071Z,99099.03
2022-11-03T20:59:18.111Z,99093.59
2022-11-03T21:01:48.019Z,99087.13
2022-11-03T21:04:19.697Z,99089.03
2022-11-03T21:06:47.740Z,99094.38
2022-11-03T21:09:18.320Z,99082.19
2022-11-03T21:11:47.167Z,99084.28
2022-11-03T21:14:25.115Z,99080.91
2022-11-03T21:17:13.884Z,99071.28
2022-11-03T21:20:02.021Z,99067.59
2022-11-03T21:22:55.906Z,99065.75
2022-11-03T21:25:26.448Z,99065.16
2022-11-03T21:28:08.585Z,99057.34
2022-11-03T21:30:39.388Z,99045.75
2022-11-03T21:33:07.223Z,99045.00
2022-11-03T21:35:35.232Z,99051.13
2022-11-03T21:38:02.994Z,99038.03
2022-11-03T21:40:30.459Z,99029.50
2022-11-03T21:43:16.211Z,99023.47
2022-11-03T21:45:44.738Z,99025.50
2022-11-03T21:48:30.897Z,99015.16
2022-11-03T21:51:04.526Z,99011.28
2022-11-03T21:53:31.614Z,99005.94
2022-11-03T21:55:58.902Z,99002.25
2022-11-03T21:58:25.967Z,99007.03
2022-11-03T22:00:53.479Z,99000.41
2022-11-03T22:03:20.506Z,98996.91
2022-11-03T22:05:47.783Z,98989.66
2022-11-03T22:08:14.759Z,98991.28
2022-11-03T22:10:42.017Z,98998.31
2022-11-03T22:13:09.709Z,98992.38
2022-11-03T22:15:55.850Z,98988.88
2022-11-03T22:18:23.084Z,98993.66
2022-11-03T22:21:08.800Z,98985.53
2022-11-03T22:23:54.525Z,98982.56
2022-11-03T22:26:45.919Z,98984.34
2022-11-03T22:29:31.401Z,98977.31
2022-11-03T22:31:58.929Z,98965.28
2022-11-03T22:34:44.486Z,98972.31
2022-11-03T22:37:14.714Z,98972.50
2022-11-03T22:40:00.407Z,98963.44
2022-11-03T22:42:45.761Z,98953.09
2022-11-03T22:45:31.206Z,98949.00
2022-11-03T22:47:58.458Z,98949.94
2022-11-03T22:50:27.951Z,98944.19
2022-11-03T22:52:55.243Z,98935.53
2022-11-03T22:55:23.341Z,98934.03
2022-11-03T22:57:52.798Z,98927.03
2022-11-03T23:00:22.012Z,98931.81
2022-11-03T23:02:56.157Z,98920.59
2022-11-03T23:05:25.571Z,98919.09
2022-11-03T23:07:52.824Z,98909.28
2022-11-03T23:10:19.951Z,98909.69
2022-11-03T23:12:46.899Z,98900.78
2022-11-03T23:15:32.498Z,98899.69
2022-11-03T23:18:23.313Z,98888.41
2022-11-03T23:21:08.772Z,98882.25
2022-11-03T23:23:56.311Z,98884.84
2022-11-03T23:26:27.294Z,98868.00
2022-11-03T23:28:54.857Z,98868.19
2022-11-03T23:31:22.622Z,98870.78
2022-11-03T23:33:49.750Z,98865.44
2022-11-03T23:36:18.127Z,98871.19
2022-11-03T23:38:45.231Z,98854.16
2022-11-03T23:41:17.341Z,98844.34
2022-11-03T23:43:46.256Z,98834.56
2022-11-03T23:46:34.158Z,98833.75
2022-11-03T23:49:02.211Z,98830.25
2022-11-03T23:51:33.504Z,98826.75
2022-11-03T23:54:01.806Z,98814.16
2022-11-03T23:56:48.787Z,98818.25
2022-11-03T23:59:17.222Z,98808.63
